createdAt,value
2017-06-10T00:00:58.287Z,62.97
2017-06-10T00:03:26.663Z,59.53
2017-06-10T00:05:54.960Z,50.87
2017-06-10T00:08:23.124Z,53.77
2017-06-10T00:10:51.447Z,51.83
2017-06-10T00:13:19.652Z,59.00
2017-06-10T00:15:47.839Z,56.03
2017-06-10T00:18:16.214Z,52.13
2017-06-10T00:20:44.499Z,57.73
2017-06-10T00:23:12.735Z,69.03
2017-06-10T00:25:41.036Z,64.87
2017-06-10T00:28:09.187Z,61.67
2017-06-10T00:30:37.351Z,59.30
2017-06-10T00:33:05.664Z,51.00
2017-06-10T00:35:33.784Z,61.43
2017-06-10T00:38:02.075Z,62.23
2017-06-10T00:40:30.463Z,54.53
2017-06-10T00:42:58.669Z,52.93
2017-06-10T00:45:26.911Z,56.83
2017-06-10T00:47:55.247Z,63.90
2017-06-10T00:50:23.407Z,60.50
2017-06-10T00:52:51.575Z,59.90
2017-06-10T00:55:19.919Z,81.33
2017-06-10T00:57:48.160Z,73.27
2017-06-10T01:00:16.395Z,74.13
2017-06-10T01:02:44.781Z,75.70
2017-06-10T01:05:12.983Z,82.60
2017-06-10T01:07:41.275Z,83.70
2017-06-10T01:10:09.655Z,81.97
2017-06-10T01:12:37.771Z,91.97
2017-06-10T01:15:06.015Z,91.83
2017-06-10T01:17:34.339Z,83.03
2017-06-10T01:20:02.458Z,98.63
2017-06-10T01:22:30.791Z,96.20
2017-06-10T01:24:59.163Z,96.07
2017-06-10T01:27:27.311Z,97.80
2017-06-10T01:29:55.455Z,81.90
2017-06-10T01:32:23.823Z,85.83
2017-06-10T01:34:52.104Z,81.47
2017-06-10T01:37:20.248Z,80.53
2017-06-10T01:39:48.656Z,90.87
2017-06-10T01:42:16.847Z,85.87
2017-06-10T01:44:45.123Z,77.43
2017-06-10T01:47:13.463Z,88.37
2017-06-10T01:49:41.730Z,76.50
2017-06-10T01:52:09.967Z,87.57
2017-06-10T01:54:42.683Z,80.80
2017-06-10T01:57:14.951Z,75.53
2017-06-10T01:59:43.625Z,81.23
2017-06-10T02:02:11.879Z,73.87
2017-06-10T02:04:40.187Z,71.50
2017-06-10T02:07:09.400Z,84.00
2017-06-10T02:09:37.632Z,84.13
2017-06-10T02:12:05.943Z,66.57
2017-06-10T02:14:34.239Z,72.33
2017-06-10T02:17:02.479Z,63.20
2017-06-10T02:19:30.624Z,73.23
2017-06-10T02:21:58.903Z,66.30
2017-06-10T02:24:27.291Z,76.97
2017-06-10T02:26:55.479Z,70.80
2017-06-10T02:29:23.764Z,74.13
2017-06-10T02:31:51.999Z,77.37
2017-06-10T02:34:20.165Z,64.03
2017-06-10T02:36:48.551Z,77.10
2017-06-10T02:39:16.787Z,57.53
2017-06-10T02:41:45.063Z,61.57
2017-06-10T02:44:13.444Z,65.30
2017-06-10T02:46:41.645Z,65.07
2017-06-10T02:49:09.891Z,71.23
2017-06-10T02:51:38.303Z,73.67
2017-06-10T02:54:06.507Z,64.60
2017-06-10T02:56:34.627Z,71.73
2017-06-10T02:59:02.924Z,62.37
2017-06-10T03:01:31.130Z,59.73
2017-06-10T03:03:59.335Z,70.60
2017-06-10T03:06:27.896Z,64.97
2017-06-10T03:08:56.088Z,69.33
2017-06-10T03:11:24.283Z,60.80
2017-06-10T03:13:52.663Z,69.93
2017-06-10T03:16:21.175Z,65.83
2017-06-10T03:18:49.381Z,67.00
2017-06-10T03:21:17.761Z,67.50
2017-06-10T03:23:46.007Z,80.17
2017-06-10T03:26:14.351Z,65.90
2017-06-10T03:28:42.682Z,73.93
2017-06-10T03:31:10.851Z,85.27
2017-06-10T03:33:39.096Z,78.50
2017-06-10T03:36:07.456Z,78.73
2017-06-10T03:38:35.630Z,84.53
2017-06-10T03:41:03.875Z,91.17
2017-06-10T03:43:32.242Z,72.73
2017-06-10T03:46:00.437Z,86.27
2017-06-10T03:48:28.722Z,84.23
2017-06-10T03:50:57.104Z,75.10
2017-06-10T03:53:25.307Z,94.87
2017-06-10T03:55:53.471Z,83.20
2017-06-10T03:58:21.777Z,76.27
2017-06-10T04:00:50.038Z,74.43
2017-06-10T04:03:18.283Z,78.50
2017-06-10T04:05:46.616Z,68.17
2017-06-10T04:08:14.887Z,78.63
2017-06-10T04:10:43.055Z,63.70
2017-06-10T04:13:11.443Z,69.07
2017-06-10T04:15:39.635Z,69.10
2017-06-10T04:18:07.858Z,69.30
2017-06-10T04:20:36.559Z,82.37
2017-06-10T04:23:05.455Z,75.07
2017-06-10T04:25:34.531Z,53.57
2017-06-10T04:28:03.107Z,63.43
2017-06-10T04:30:31.796Z,75.73
2017-06-10T04:33:00.235Z,84.10
2017-06-10T04:35:29.067Z,59.73
2017-06-10T04:37:58.051Z,58.27
2017-06-10T04:40:27.029Z,80.43
2017-06-10T04:42:55.783Z,61.83
2017-06-10T04:45:26.115Z,69.17
2017-06-10T04:47:54.680Z,64.87
2017-06-10T04:50:23.684Z,47.10
2017-06-10T04:52:51.982Z,77.17
2017-06-10T04:55:21.071Z,68.40
2017-06-10T04:57:50.055Z,64.33
2017-06-10T05:00:18.591Z,69.93
2017-06-10T05:02:47.647Z,60.43
2017-06-10T05:05:17.987Z,83.20
2017-06-10T05:07:46.611Z,75.07
2017-06-10T05:10:15.624Z,58.47
2017-06-10T05:12:46.055Z,60.60
2017-06-10T05:15:16.114Z,52.17
2017-06-10T05:17:45.588Z,64.10
2017-06-10T05:20:14.903Z,46.03
2017-06-10T05:22:44.197Z,49.10
2017-06-10T05:25:13.263Z,47.57
2017-06-10T05:27:42.335Z,53.67
2017-06-10T05:30:11.460Z,51.53
2017-06-10T05:32:39.861Z,43.43
2017-06-10T05:35:08.875Z,54.70
2017-06-10T05:37:36.999Z,44.27
2017-06-10T05:40:06.535Z,45.57
2017-06-10T05:42:34.890Z,49.40
2017-06-10T05:45:03.895Z,65.13
2017-06-10T05:47:32.708Z,56.40
2017-06-10T05:50:01.963Z,45.10
2017-06-10T05:52:30.811Z,62.15
2017-06-10T05:54:59.603Z,55.22
2017-06-10T05:57:28.063Z,70.32
2017-06-10T05:59:56.767Z,70.25
2017-06-10T06:02:25.543Z,63.70
2017-06-10T06:04:54.419Z,68.50
2017-06-10T06:07:23.847Z,62.17
2017-06-10T06:09:52.155Z,66.37
2017-06-10T06:12:20.467Z,55.93
2017-06-10T06:14:50.044Z,56.90
2017-06-10T06:17:18.708Z,53.47
2017-06-10T06:19:47.067Z,40.13
2017-06-10T06:22:15.906Z,46.73
2017-06-10T06:24:45.212Z,48.93
2017-06-10T06:27:13.580Z,55.00
2017-06-10T06:29:42.643Z,41.97
2017-06-10T06:32:11.136Z,57.57
2017-06-10T06:34:41.099Z,52.67
2017-06-10T06:37:09.527Z,58.63
2017-06-10T06:39:38.519Z,49.72
2017-06-10T06:42:07.719Z,50.25
2017-06-10T06:44:39.283Z,44.42
2017-06-10T06:47:09.403Z,52.00
2017-06-10T06:49:37.607Z,46.70
2017-06-10T06:52:06.035Z,34.45
2017-06-10T06:54:34.319Z,41.92
2017-06-10T06:57:03.302Z,48.75
2017-06-10T06:59:31.511Z,50.58
2017-06-10T07:02:00.781Z,45.00
2017-06-10T07:04:30.456Z,64.28
2017-06-10T07:06:59.224Z,47.28
2017-06-10T07:09:28.292Z,37.10
2017-06-10T07:11:57.891Z,52.70
2017-06-10T07:14:26.584Z,45.83
2017-06-10T07:16:55.949Z,42.40
2017-06-10T07:19:24.291Z,58.37
2017-06-10T07:21:53.238Z,44.53
2017-06-10T07:24:22.370Z,44.57
2017-06-10T07:26:50.947Z,61.97
2017-06-10T07:29:19.215Z,60.33
2017-06-10T07:31:48.171Z,56.67
2017-06-10T07:34:16.467Z,66.03
2017-06-10T07:36:45.176Z,61.50
2017-06-10T07:39:14.523Z,48.37
2017-06-10T07:41:42.724Z,71.33
2017-06-10T07:44:10.879Z,47.13
2017-06-10T07:46:41.635Z,58.23
2017-06-10T07:49:09.748Z,58.00
2017-06-10T07:51:38.935Z,45.33
2017-06-10T07:54:07.687Z,60.40
2017-06-10T07:56:36.501Z,52.83
2017-06-10T07:59:04.901Z,42.87
2017-06-10T08:01:35.733Z,43.73
2017-06-10T08:04:04.039Z,46.50
2017-06-10T08:06:32.545Z,50.90
2017-06-10T08:09:02.385Z,59.53
2017-06-10T08:11:30.461Z,67.03
2017-06-10T08:14:00.799Z,69.43
2017-06-10T08:16:29.428Z,81.10
2017-06-10T08:18:57.723Z,58.60
2017-06-10T08:21:26.660Z,61.73
2017-06-10T08:23:55.283Z,60.40
2017-06-10T08:26:23.795Z,61.30
2017-06-10T08:28:52.915Z,64.93
2017-06-10T08:31:21.799Z,69.17
2017-06-10T08:33:50.815Z,67.17
2017-06-10T08:36:20.507Z,76.33
2017-06-10T08:38:48.942Z,59.07
2017-06-10T08:41:17.531Z,59.83
2017-06-10T08:43:46.159Z,53.70
2017-06-10T08:46:14.407Z,63.47
2017-06-10T08:48:43.225Z,59.13
2017-06-10T08:51:11.835Z,63.60
2017-06-10T08:53:40.547Z,52.20
2017-06-10T08:56:09.351Z,64.13
2017-06-10T08:58:38.951Z,53.97
2017-06-10T09:01:07.331Z,48.93
2017-06-10T09:03:36.135Z,55.53
2017-06-10T09:06:04.574Z,52.07
2017-06-10T09:08:34.326Z,56.73
2017-06-10T09:11:03.667Z,51.63
2017-06-10T09:13:32.295Z,55.13
2017-06-10T09:16:00.703Z,54.00
2017-06-10T09:18:29.348Z,50.13
2017-06-10T09:20:58.169Z,50.10
2017-06-10T09:23:26.377Z,50.63
2017-06-10T09:25:54.674Z,55.10
2017-06-10T09:28:23.263Z,56.13
2017-06-10T09:30:52.344Z,58.47
2017-06-10T09:33:20.420Z,60.80
2017-06-10T09:35:48.580Z,63.83
2017-06-10T09:38:17.747Z,64.30
2017-06-10T09:40:46.505Z,62.47
2017-06-10T09:43:15.443Z,63.83
2017-06-10T09:45:44.460Z,62.20
2017-06-10T09:48:13.467Z,65.53
2017-06-10T09:50:41.543Z,61.73
2017-06-10T09:53:09.759Z,67.00
2017-06-10T09:55:38.504Z,65.10
2017-06-10T09:58:06.795Z,66.83
2017-06-10T10:00:35.002Z,63.50
2017-06-10T10:03:03.615Z,67.20
2017-06-10T10:05:32.222Z,67.87
2017-06-10T10:08:00.931Z,65.20
2017-06-10T10:10:29.699Z,64.00
2017-06-10T10:12:59.466Z,61.53
2017-06-10T10:15:28.179Z,63.27
2017-06-10T10:17:56.927Z,64.23
2017-06-10T10:20:25.543Z,66.37
2017-06-10T10:22:55.592Z,65.37
2017-06-10T10:54:20.936Z,63.83
2017-06-10T10:56:50.968Z,60.87
2017-06-10T10:59:19.924Z,61.93
2017-06-10T11:01:48.064Z,61.03
2017-06-10T11:04:17.645Z,62.00
2017-06-10T11:06:46.616Z,60.90
2017-06-10T11:09:14.673Z,60.37
2017-06-10T11:11:45.089Z,56.57
2017-06-10T11:14:14.431Z,61.33
2017-06-10T11:16:43.965Z,56.30
2017-06-10T11:19:12.357Z,58.50
2017-06-10T11:21:41.808Z,60.87
2017-06-10T11:24:11.513Z,55.93
2017-06-10T11:26:41.868Z,57.47
2017-06-10T11:29:10.228Z,56.40
2017-06-10T11:31:39.537Z,50.43
2017-06-10T11:34:08.300Z,52.57
2017-06-10T11:36:36.734Z,52.53
2017-06-10T11:39:04.954Z,47.10
2017-06-10T11:41:34.680Z,46.60
2017-06-10T11:55:31.777Z,31.97
2017-06-10T12:00:52.407Z,33.30
2017-06-10T12:03:22.330Z,31.03
2017-06-10T12:06:03.528Z,29.77
2017-06-10T12:08:34.983Z,33.97
2017-06-10T12:11:07.714Z,33.80
2017-06-10T12:13:57.350Z,40.00
2017-06-10T12:16:41.693Z,29.63
2017-06-10T12:27:44.597Z,32.97
2017-06-10T12:47:30.677Z,30.87
2017-06-10T12:49:58.676Z,30.10
2017-06-10T12:52:26.632Z,30.63
2017-06-10T12:54:54.816Z,33.10
2017-06-10T12:57:22.920Z,30.20
2017-06-10T12:59:50.844Z,31.20
2017-06-10T13:02:18.960Z,29.17
2017-06-10T13:04:46.960Z,31.83
2017-06-10T13:07:14.928Z,30.77
2017-06-10T13:09:43.108Z,34.07
2017-06-10T13:12:11.068Z,28.73
2017-06-10T13:14:38.981Z,32.43
2017-06-10T13:17:07.093Z,31.33
2017-06-10T13:19:35.078Z,33.43
2017-06-10T13:22:03.085Z,35.63
2017-06-10T13:24:31.948Z,37.57
2017-06-10T13:26:59.948Z,36.03
2017-06-10T13:29:27.920Z,34.97
2017-06-10T13:31:56.632Z,37.73
2017-06-10T13:34:25.974Z,38.27
2017-06-10T13:36:55.384Z,37.37
2017-06-10T13:39:24.340Z,35.57
2017-06-10T13:41:53.733Z,38.57
2017-06-10T13:44:22.780Z,37.73
2017-06-10T13:46:51.493Z,37.03
2017-06-10T13:49:20.145Z,37.73
2017-06-10T13:51:48.060Z,38.03
2017-06-10T13:54:16.876Z,43.93
2017-06-10T13:56:45.269Z,35.67
2017-06-10T13:59:13.876Z,35.67
2017-06-10T14:01:42.076Z,35.30
2017-06-10T14:04:10.564Z,36.73
2017-06-10T14:06:38.572Z,35.67
2017-06-10T14:09:08.221Z,35.33
2017-06-10T14:11:36.973Z,34.97
2017-06-10T14:14:05.361Z,37.57
2017-06-10T14:16:33.476Z,37.20
2017-06-10T14:19:01.924Z,37.40
2017-06-10T14:21:30.424Z,38.77
2017-06-10T14:23:58.596Z,38.97
2017-06-10T14:26:26.552Z,39.73
2017-06-10T14:28:54.521Z,41.60
2017-06-10T14:31:23.328Z,40.37
2017-06-10T14:33:52.022Z,40.07
2017-06-10T14:36:20.476Z,36.53
2017-06-10T14:38:49.188Z,37.97
2017-06-10T14:41:17.769Z,30.20
2017-06-10T14:43:45.766Z,29.80
2017-06-10T14:46:13.876Z,32.33
2017-06-10T14:48:41.900Z,31.07
2017-06-10T14:51:09.912Z,31.27
2017-06-10T14:53:38.100Z,26.43
2017-06-10T14:56:06.388Z,38.53
2017-06-10T14:58:34.892Z,33.83
2017-06-10T15:01:03.244Z,31.07
2017-06-10T15:03:31.685Z,36.47
2017-06-10T15:05:59.744Z,32.20
2017-06-10T15:08:28.248Z,34.53
2017-06-10T15:10:56.200Z,33.93
2017-06-10T15:13:24.149Z,33.13
2017-06-10T15:15:52.252Z,30.30
2017-06-10T15:18:20.252Z,32.97
2017-06-10T15:20:48.269Z,32.33
2017-06-10T15:23:16.437Z,29.53
2017-06-10T15:25:44.452Z,31.37
2017-06-10T15:28:12.417Z,32.43
2017-06-10T15:30:40.575Z,29.10
2017-06-10T15:33:08.588Z,34.10
2017-06-10T15:35:36.596Z,36.73
2017-06-10T15:38:04.740Z,35.37
2017-06-10T15:40:32.784Z,34.80
2017-06-10T15:43:00.808Z,37.93
2017-06-10T15:45:29.460Z,35.37
2017-06-10T15:47:57.431Z,37.00
2017-06-10T15:50:26.676Z,33.07
2017-06-10T15:52:55.636Z,35.97
2017-06-10T15:55:24.896Z,36.37
2017-06-10T15:57:52.817Z,34.00
2017-06-10T16:00:21.452Z,34.93
2017-06-10T16:02:50.284Z,37.20
2017-06-10T16:05:19.000Z,33.50
2017-06-10T16:07:47.656Z,31.27
2017-06-10T16:10:16.176Z,31.70
2017-06-10T16:12:44.864Z,37.37
2017-06-10T16:15:13.465Z,30.13
2017-06-10T16:17:41.492Z,33.87
2017-06-10T16:20:10.099Z,34.20
2017-06-10T16:22:38.661Z,35.07
2017-06-10T16:25:07.278Z,33.03
2017-06-10T16:27:35.976Z,34.33
2017-06-10T16:30:04.817Z,34.60
2017-06-10T16:32:32.892Z,33.53
2017-06-10T16:35:00.942Z,35.60
2017-06-10T16:37:30.608Z,38.10
2017-06-10T16:40:00.352Z,33.93
2017-06-10T16:42:28.904Z,37.80
2017-06-10T16:44:57.697Z,41.90
2017-06-10T16:47:26.057Z,43.37
2017-06-10T16:49:54.084Z,40.23
2017-06-10T16:52:22.693Z,40.07
2017-06-10T16:54:50.684Z,39.27
2017-06-10T16:57:18.636Z,39.33
2017-06-10T16:59:47.465Z,40.50
2017-06-10T17:02:15.922Z,42.47
2017-06-10T17:04:44.632Z,40.37
2017-06-10T17:07:13.356Z,41.53
2017-06-10T17:09:41.394Z,40.37
2017-06-10T17:12:10.005Z,38.70
2017-06-10T17:14:38.175Z,36.73
2017-06-10T17:17:06.161Z,39.47
2017-06-10T17:19:34.125Z,41.13
2017-06-10T17:22:02.397Z,35.70
2017-06-10T17:24:30.470Z,34.43
2017-06-10T17:26:58.500Z,36.83
2017-06-10T17:29:27.736Z,34.60
2017-06-10T17:31:56.311Z,35.73
2017-06-10T17:34:25.533Z,33.57
2017-06-10T17:36:53.788Z,32.73
2017-06-10T17:39:22.356Z,31.57
2017-06-10T17:41:51.874Z,33.03
2017-06-10T17:44:20.733Z,31.57
2017-06-10T17:46:48.807Z,30.23
2017-06-10T17:49:16.832Z,31.00
2017-06-10T17:51:45.040Z,29.43
2017-06-10T17:54:13.264Z,26.60
2017-06-10T17:56:41.345Z,27.23
2017-06-10T17:59:09.474Z,26.57
2017-06-10T18:01:37.468Z,28.17
2017-06-10T18:04:05.504Z,24.87
2017-06-10T18:06:33.876Z,29.33
2017-06-10T18:09:01.871Z,26.97
2017-06-10T18:11:29.937Z,29.00
2017-06-10T18:13:58.000Z,32.20
2017-06-10T18:16:25.973Z,36.67
2017-06-10T18:18:53.953Z,39.93
2017-06-10T18:21:22.809Z,44.67
2017-06-10T18:23:51.355Z,50.03
2017-06-10T18:26:20.220Z,59.03
2017-06-10T18:28:48.511Z,52.63
2017-06-10T18:31:17.249Z,54.20
2017-06-10T18:33:46.005Z,59.50
2017-06-10T18:36:14.548Z,69.00
2017-06-10T18:38:43.561Z,62.47
2017-06-10T18:41:12.072Z,78.17
2017-06-10T18:43:40.755Z,55.77
2017-06-10T18:46:08.741Z,80.10
2017-06-10T18:48:36.669Z,66.23
2017-06-10T18:51:04.789Z,55.73
2017-06-10T18:53:33.181Z,56.13
2017-06-10T18:56:01.217Z,55.83
2017-06-10T18:58:29.764Z,56.07
2017-06-10T19:00:58.940Z,57.30
2017-06-10T19:03:26.996Z,57.13
2017-06-10T19:05:55.100Z,57.67
2017-06-10T19:08:24.328Z,56.20
2017-06-10T19:10:52.314Z,57.50
2017-06-10T19:13:20.966Z,53.47
2017-06-10T19:15:50.305Z,60.43
2017-06-10T19:18:18.824Z,54.67
2017-06-10T19:20:47.512Z,52.10
2017-06-10T19:23:16.134Z,55.23
2017-06-10T19:25:45.472Z,57.37
2017-06-10T19:28:14.229Z,57.97
2017-06-10T19:30:42.725Z,57.50
2017-06-10T19:33:11.148Z,57.03
2017-06-10T19:35:40.081Z,57.70
2017-06-10T19:38:08.383Z,58.20
2017-06-10T19:40:36.884Z,61.50
2017-06-10T19:43:05.068Z,58.10
2017-06-10T19:45:33.536Z,61.60
2017-06-10T19:48:02.122Z,57.90
2017-06-10T19:50:30.200Z,59.30
2017-06-10T19:52:58.392Z,61.33
2017-06-10T19:55:26.417Z,57.63
2017-06-10T19:57:54.524Z,55.43
2017-06-10T20:00:22.549Z,52.10
2017-06-10T20:02:50.467Z,56.77
2017-06-10T20:05:18.622Z,56.50
2017-06-10T20:07:46.592Z,54.10
2017-06-10T20:10:15.417Z,53.67
2017-06-10T20:12:44.253Z,52.70
2017-06-10T20:15:12.656Z,52.73
2017-06-10T20:17:41.068Z,50.77
2017-06-10T20:20:09.833Z,52.00
2017-06-10T20:22:37.841Z,55.17
2017-06-10T20:25:05.845Z,57.60
2017-06-10T20:27:34.007Z,54.40
2017-06-10T20:30:01.988Z,53.20
2017-06-10T20:32:29.983Z,53.33
2017-06-10T20:34:58.088Z,55.73
2017-06-10T20:37:26.068Z,54.73
2017-06-10T20:39:54.040Z,54.17
2017-06-10T20:42:22.208Z,56.40
2017-06-10T20:44:50.177Z,56.37
2017-06-10T20:47:18.109Z,58.37
2017-06-10T20:49:46.221Z,56.73
2017-06-10T20:52:14.248Z,62.17
2017-06-10T20:54:42.752Z,58.37
2017-06-10T20:57:11.540Z,60.23
2017-06-10T20:59:40.125Z,58.97
2017-06-10T21:02:08.806Z,57.43
2017-06-10T21:04:37.423Z,61.87
2017-06-10T21:07:05.988Z,59.63
2017-06-10T21:09:34.734Z,59.03
2017-06-10T21:12:03.357Z,59.97
2017-06-10T21:14:32.004Z,58.20
2017-06-10T21:17:01.543Z,61.27
2017-06-10T21:19:29.961Z,59.20
2017-06-10T21:21:58.544Z,59.20
2017-06-10T21:24:26.568Z,60.80
2017-06-10T21:26:55.201Z,60.53
2017-06-10T21:29:23.925Z,60.03
2017-06-10T21:31:53.160Z,58.47
2017-06-10T21:34:22.053Z,57.60
2017-06-10T21:36:50.073Z,58.37
2017-06-10T21:39:18.712Z,59.87
2017-06-10T21:41:47.464Z,60.10
2017-06-10T21:44:15.909Z,58.67
2017-06-10T21:46:44.469Z,58.37
2017-06-10T21:49:12.981Z,58.37
2017-06-10T21:51:41.463Z,58.80
2017-06-10T21:54:10.045Z,55.77
2017-06-10T21:56:38.909Z,54.37
2017-06-10T21:59:06.884Z,56.83
2017-06-10T22:01:35.465Z,60.30
2017-06-10T22:04:04.325Z,52.80
2017-06-10T22:06:32.343Z,55.27
2017-06-10T22:09:00.936Z,53.73
2017-06-10T22:11:29.765Z,56.73
2017-06-10T22:13:57.933Z,54.47
2017-06-10T22:16:25.952Z,52.97
2017-06-10T22:18:54.768Z,51.47
2017-06-10T22:21:22.793Z,50.70
2017-06-10T22:23:50.780Z,50.43
2017-06-10T22:26:18.972Z,52.50
2017-06-10T22:28:46.932Z,50.83
2017-06-10T22:31:14.897Z,52.13
2017-06-10T22:33:43.540Z,51.33
2017-06-10T22:36:12.952Z,48.70
2017-06-10T22:38:40.921Z,52.20
2017-06-10T22:41:09.648Z,53.17
2017-06-10T22:43:38.401Z,50.03
2017-06-10T22:46:06.677Z,51.67
2017-06-10T22:48:36.418Z,51.97
2017-06-10T22:51:04.937Z,49.17
2017-06-10T22:53:32.896Z,45.53
2017-06-10T22:56:01.020Z,48.10
2017-06-10T22:58:28.940Z,46.47
2017-06-10T23:00:56.864Z,45.33
2017-06-10T23:03:24.936Z,45.30
2017-06-10T23:05:52.888Z,44.43
2017-06-10T23:08:20.865Z,43.40
2017-06-10T23:10:48.958Z,43.27
2017-06-10T23:13:16.904Z,42.57
2017-06-10T23:18:20.839Z,41.93
2017-06-10T23:20:48.768Z,39.80
2017-06-10T23:23:16.706Z,40.57
2017-06-10T23:25:44.832Z,39.97
2017-06-10T23:28:13.248Z,39.93
2017-06-10T23:30:41.752Z,38.70
2017-06-10T23:33:10.545Z,40.93
2017-06-10T23:35:39.228Z,39.30
2017-06-10T23:38:07.544Z,38.10
2017-06-10T23:40:36.325Z,39.73
2017-06-10T23:43:04.984Z,38.50
2017-06-10T23:45:33.665Z,40.10
2017-06-10T23:48:02.212Z,39.10
2017-06-10T23:50:31.335Z,35.20
2017-06-10T23:52:59.352Z,34.70
2017-06-10T23:55:27.925Z,33.97
2017-06-10T23:57:56.520Z,36.33
